sensor_id;sensor_type;location;lat;lon;timestamp;P1;durP1;ratioP1;P2;durP2;ratioP2
14015;SDS011;7083;48.854;9.158;2023-04-29T00:02:23;1999.90;;;999.90;;
14015;SDS011;7083;48.854;9.158;2023-04-29T00:04:50;1999.90;;;999.90;;
14015;SDS011;7083;48.854;9.158;2023-04-29T00:07:18;1999.90;;;999.90;;
14015;SDS011;7083;48.854;9.158;2023-04-29T00:09:46;1999.90;;;999.90;;
14015;SDS011;7083;48.854;9.158;2023-04-29T00:12:13;1999.90;;;999.90;;
14015;SDS011;7083;48.854;9.158;2023-04-29T00:14:39;1999.90;;;999.90;;
14015;SDS011;7083;48.854;9.158;2023-04-29T00:17:07;1999.90;;;999.90;;
14015;SDS011;7083;48.854;9.158;2023-04-29T00:19:34;1999.90;;;999.90;;
14015;SDS011;7083;48.854;9.158;2023-04-29T00:22:00;1999.90;;;999.90;;
14015;SDS011;7083;48.854;9.158;2023-04-29T00:24:29;1999.90;;;999.90;;
14015;SDS011;7083;48.854;9.158;2023-04-29T00:26:55;1999.90;;;999.90;;
14015;SDS011;7083;48.854;9.158;2023-04-29T00:29:22;1999.90;;;999.90;;
14015;SDS011;7083;48.854;9.158;2023-04-29T00:31:49;1999.90;;;999.90;;
14015;SDS011;7083;48.854;9.158;2023-04-29T00:34:15;1999.90;;;999.90;;
14015;SDS011;7083;48.854;9.158;2023-04-29T00:36:42;1999.90;;;999.90;;
14015;SDS011;7083;48.854;9.158;2023-04-29T00:39:11;1999.90;;;999.90;;
14015;SDS011;7083;48.854;9.158;2023-04-29T00:41:51;1999.90;;;999.90;;
14015;SDS011;7083;48.854;9.158;2023-04-29T00:44:18;1999.90;;;999.90;;
14015;SDS011;7083;48.854;9.158;2023-04-29T00:46:44;1999.90;;;999.90;;
14015;SDS011;7083;48.854;9.158;2023-04-29T00:49:11;1999.90;;;999.90;;
14015;SDS011;7083;48.854;9.158;2023-04-29T00:51:39;1999.90;;;999.90;;
14015;SDS011;7083;48.854;9.158;2023-04-29T00:54:06;1999.90;;;999.90;;
14015;SDS011;7083;48.854;9.158;2023-04-29T00:56:39;1999.90;;;999.90;;
14015;SDS011;7083;48.854;9.158;2023-04-29T00:59:11;1999.90;;;999.90;;
14015;SDS011;7083;48.854;9.158;2023-04-29T01:01:39;1999.90;;;999.90;;
14015;SDS011;7083;48.854;9.158;2023-04-29T01:04:06;1999.90;;;999.90;;
14015;SDS011;7083;48.854;9.158;2023-04-29T01:06:39;1999.90;;;999.90;;
14015;SDS011;7083;48.854;9.158;2023-04-29T01:09:22;1999.90;;;999.90;;
14015;SDS011;7083;48.854;9.158;2023-04-29T01:12:07;1999.90;;;999.90;;
14015;SDS011;7083;48.854;9.158;2023-04-29T01:14:53;1999.90;;;999.90;;
14015;SDS011;7083;48.854;9.158;2023-04-29T01:17:29;1999.90;;;999.90;;
14015;SDS011;7083;48.854;9.158;2023-04-29T01:20:01;1999.90;;;999.90;;
14015;SDS011;7083;48.854;9.158;2023-04-29T01:22:35;1999.90;;;999.90;;
14015;SDS011;7083;48.854;9.158;2023-04-29T01:25:04;1999.90;;;999.90;;
14015;SDS011;7083;48.854;9.158;2023-04-29T01:27:32;1999.90;;;999.90;;
14015;SDS011;7083;48.854;9.158;2023-04-29T01:30:04;1999.90;;;999.90;;
14015;SDS011;7083;48.854;9.158;2023-04-29T01:32:38;1999.90;;;999.90;;
14015;SDS011;7083;48.854;9.158;2023-04-29T01:35:16;1999.90;;;999.90;;
14015;SDS011;7083;48.854;9.158;2023-04-29T01:37:55;1999.90;;;999.90;;
14015;SDS011;7083;48.854;9.158;2023-04-29T01:40:31;1999.90;;;999.90;;
14015;SDS011;7083;48.854;9.158;2023-04-29T01:43:03;1999.90;;;999.90;;
14015;SDS011;7083;48.854;9.158;2023-04-29T01:45:35;1999.90;;;999.90;;
14015;SDS011;7083;48.854;9.158;2023-04-29T01:48:05;1999.90;;;999.90;;
14015;SDS011;7083;48.854;9.158;2023-04-29T01:50:33;1999.90;;;999.90;;
14015;SDS011;7083;48.854;9.158;2023-04-29T01:52:59;1999.90;;;999.90;;
14015;SDS011;7083;48.854;9.158;2023-04-29T01:55:33;1999.90;;;999.90;;
14015;SDS011;7083;48.854;9.158;2023-04-29T01:58:04;1999.90;;;999.90;;
14015;SDS011;7083;48.854;9.158;2023-04-29T02:00:31;1999.90;;;999.90;;
14015;SDS011;7083;48.854;9.158;2023-04-29T02:02:57;1999.90;;;999.90;;
14015;SDS011;7083;48.854;9.158;2023-04-29T02:05:24;1999.90;;;999.90;;
14015;SDS011;7083;48.854;9.158;2023-04-29T02:07:52;1999.90;;;999.90;;
14015;SDS011;7083;48.854;9.158;2023-04-29T02:10:19;1999.90;;;999.90;;
14015;SDS011;7083;48.854;9.158;2023-04-29T02:12:47;1999.90;;;999.90;;
14015;SDS011;7083;48.854;9.158;2023-04-29T02:15:13;1999.90;;;999.90;;
14015;SDS011;7083;48.854;9.158;2023-04-29T02:17:41;1999.90;;;999.90;;
14015;SDS011;7083;48.854;9.158;2023-04-29T02:20:08;1999.90;;;999.90;;
14015;SDS011;7083;48.854;9.158;2023-04-29T02:22:35;1999.90;;;999.90;;
14015;SDS011;7083;48.854;9.158;2023-04-29T02:25:02;1999.90;;;999.90;;
14015;SDS011;7083;48.854;9.158;2023-04-29T02:27:30;1999.90;;;999.90;;
14015;SDS011;7083;48.854;9.158;2023-04-29T02:29:58;1999.90;;;999.90;;
14015;SDS011;7083;48.854;9.158;2023-04-29T02:32:25;1999.90;;;999.90;;
14015;SDS011;7083;48.854;9.158;2023-04-29T02:34:51;1999.90;;;999.90;;
14015;SDS011;7083;48.854;9.158;2023-04-29T02:37:18;1999.90;;;999.90;;
14015;SDS011;7083;48.854;9.158;2023-04-29T02:39:45;1999.90;;;999.90;;
14015;SDS011;7083;48.854;9.158;2023-04-29T02:42:12;1999.90;;;999.90;;
14015;SDS011;7083;48.854;9.158;2023-04-29T02:44:38;1999.90;;;999.90;;
14015;SDS011;7083;48.854;9.158;2023-04-29T02:47:07;1999.90;;;999.90;;
14015;SDS011;7083;48.854;9.158;2023-04-29T02:49:34;1999.90;;;999.90;;
14015;SDS011;7083;48.854;9.158;2023-04-29T02:52:01;1999.90;;;999.90;;
14015;SDS011;7083;48.854;9.158;2023-04-29T02:54:28;1999.90;;;999.90;;
14015;SDS011;7083;48.854;9.158;2023-04-29T02:56:54;1999.90;;;999.90;;
14015;SDS011;7083;48.854;9.158;2023-04-29T02:59:21;1999.90;;;999.90;;
14015;SDS011;7083;48.854;9.158;2023-04-29T03:01:49;1999.90;;;999.90;;
14015;SDS011;7083;48.854;9.158;2023-04-29T03:04:19;1999.90;;;999.90;;
14015;SDS011;7083;48.854;9.158;2023-04-29T03:06:46;1999.90;;;999.90;;
14015;SDS011;7083;48.854;9.158;2023-04-29T03:09:12;1999.90;;;999.90;;
14015;SDS011;7083;48.854;9.158;2023-04-29T03:11:50;958.63;;;612.67;;
14015;SDS011;7083;48.854;9.158;2023-04-29T03:14:19;434.03;;;415.13;;
14015;SDS011;7083;48.854;9.158;2023-04-29T03:16:45;429.50;;;410.83;;
14015;SDS011;7083;48.854;9.158;2023-04-29T03:19:12;419.53;;;401.03;;
14015;SDS011;7083;48.854;9.158;2023-04-29T03:21:43;419.40;;;401.00;;
14015;SDS011;7083;48.854;9.158;2023-04-29T03:24:10;403.40;;;386.00;;
14015;SDS011;7083;48.854;9.158;2023-04-29T03:26:38;942.90;;;597.67;;
14015;SDS011;7083;48.854;9.158;2023-04-29T03:29:10;1999.90;;;999.90;;
14015;SDS011;7083;48.854;9.158;2023-04-29T03:31:36;930.13;;;585.50;;
14015;SDS011;7083;48.854;9.158;2023-04-29T03:34:05;1999.90;;;999.90;;
14015;SDS011;7083;48.854;9.158;2023-04-29T03:36:32;1999.90;;;999.90;;
14015;SDS011;7083;48.854;9.158;2023-04-29T03:39:03;1999.90;;;999.90;;
14015;SDS011;7083;48.854;9.158;2023-04-29T03:41:29;1999.90;;;999.90;;
14015;SDS011;7083;48.854;9.158;2023-04-29T03:43:56;1999.90;;;999.90;;
14015;SDS011;7083;48.854;9.158;2023-04-29T03:46:24;1999.90;;;999.90;;
14015;SDS011;7083;48.854;9.158;2023-04-29T03:48:55;1999.90;;;999.90;;
14015;SDS011;7083;48.854;9.158;2023-04-29T03:51:21;1999.90;;;999.90;;
14015;SDS011;7083;48.854;9.158;2023-04-29T03:53:48;1999.90;;;999.90;;
14015;SDS011;7083;48.854;9.158;2023-04-29T03:56:17;1999.90;;;999.90;;
14015;SDS011;7083;48.854;9.158;2023-04-29T03:58:46;1999.90;;;999.90;;
14015;SDS011;7083;48.854;9.158;2023-04-29T04:01:13;1999.90;;;999.90;;
14015;SDS011;7083;48.854;9.158;2023-04-29T04:03:40;1999.90;;;999.90;;
14015;SDS011;7083;48.854;9.158;2023-04-29T04:06:07;1999.90;;;999.90;;
14015;SDS011;7083;48.854;9.158;2023-04-29T04:08:34;1999.90;;;999.90;;
14015;SDS011;7083;48.854;9.158;2023-04-29T04:11:01;1999.90;;;999.90;;
14015;SDS011;7083;48.854;9.158;2023-04-29T04:13:30;1999.90;;;999.90;;
14015;SDS011;7083;48.854;9.158;2023-04-29T04:15:56;1999.90;;;999.90;;
14015;SDS011;7083;48.854;9.158;2023-04-29T04:18:23;1999.90;;;999.90;;
14015;SDS011;7083;48.854;9.158;2023-04-29T04:20:50;1999.90;;;999.90;;
14015;SDS011;7083;48.854;9.158;2023-04-29T04:23:16;1999.90;;;999.90;;
14015;SDS011;7083;48.854;9.158;2023-04-29T04:25:43;907.30;;;563.77;;
14015;SDS011;7083;48.854;9.158;2023-04-29T04:28:11;366.03;;;350.63;;
14015;SDS011;7083;48.854;9.158;2023-04-29T04:30:39;385.73;;;369.67;;
14015;SDS011;7083;48.854;9.158;2023-04-29T04:33:06;348.80;;;334.37;;
14015;SDS011;7083;48.854;9.158;2023-04-29T04:35:34;331.50;;;317.80;;
14015;SDS011;7083;48.854;9.158;2023-04-29T04:38:01;339.23;;;325.37;;
14015;SDS011;7083;48.854;9.158;2023-04-29T04:40:28;343.20;;;329.20;;
14015;SDS011;7083;48.854;9.158;2023-04-29T04:42:54;323.97;;;310.93;;
14015;SDS011;7083;48.854;9.158;2023-04-29T04:45:21;344.43;;;330.13;;
14015;SDS011;7083;48.854;9.158;2023-04-29T04:47:49;339.87;;;326.00;;
14015;SDS011;7083;48.854;9.158;2023-04-29T04:50:16;339.47;;;325.43;;
14015;SDS011;7083;48.854;9.158;2023-04-29T04:52:42;397.13;;;379.97;;
14015;SDS011;7083;48.854;9.158;2023-04-29T04:55:09;409.97;;;392.33;;
14015;SDS011;7083;48.854;9.158;2023-04-29T04:57:36;404.80;;;387.43;;
14015;SDS011;7083;48.854;9.158;2023-04-29T05:00:03;359.83;;;344.53;;
14015;SDS011;7083;48.854;9.158;2023-04-29T05:02:31;369.77;;;354.17;;
14015;SDS011;7083;48.854;9.158;2023-04-29T05:04:59;355.77;;;340.73;;
14015;SDS011;7083;48.854;9.158;2023-04-29T05:07:26;368.90;;;353.47;;
14015;SDS011;7083;48.854;9.158;2023-04-29T05:09:52;378.80;;;363.00;;
14015;SDS011;7083;48.854;9.158;2023-04-29T05:12:19;1999.90;;;999.90;;
14015;SDS011;7083;48.854;9.158;2023-04-29T05:14:46;1999.90;;;999.90;;
14015;SDS011;7083;48.854;9.158;2023-04-29T05:17:12;1999.90;;;999.90;;
14015;SDS011;7083;48.854;9.158;2023-04-29T05:19:39;1999.90;;;999.90;;
14015;SDS011;7083;48.854;9.158;2023-04-29T05:22:07;1999.90;;;999.90;;
14015;SDS011;7083;48.854;9.158;2023-04-29T05:24:34;1999.90;;;999.90;;
14015;SDS011;7083;48.854;9.158;2023-04-29T05:27:01;1999.90;;;999.90;;
14015;SDS011;7083;48.854;9.158;2023-04-29T05:29:28;1999.90;;;999.90;;
14015;SDS011;7083;48.854;9.158;2023-04-29T05:31:55;1999.90;;;999.90;;
14015;SDS011;7083;48.854;9.158;2023-04-29T05:34:22;1999.90;;;999.90;;
14015;SDS011;7083;48.854;9.158;2023-04-29T05:36:48;1999.90;;;999.90;;
14015;SDS011;7083;48.854;9.158;2023-04-29T05:39:16;1999.90;;;999.90;;
14015;SDS011;7083;48.854;9.158;2023-04-29T05:41:43;1999.90;;;999.90;;
14015;SDS011;7083;48.854;9.158;2023-04-29T05:44:10;1999.90;;;999.90;;
14015;SDS011;7083;48.854;9.158;2023-04-29T05:46:36;1999.90;;;999.90;;
14015;SDS011;7083;48.854;9.158;2023-04-29T05:49:03;1999.90;;;999.90;;
14015;SDS011;7083;48.854;9.158;2023-04-29T05:51:29;1999.90;;;999.90;;
14015;SDS011;7083;48.854;9.158;2023-04-29T05:53:56;1999.90;;;999.90;;
14015;SDS011;7083;48.854;9.158;2023-04-29T05:56:25;1999.90;;;999.90;;
14015;SDS011;7083;48.854;9.158;2023-04-29T05:58:52;1999.90;;;999.90;;
14015;SDS011;7083;48.854;9.158;2023-04-29T06:01:18;1999.90;;;999.90;;
14015;SDS011;7083;48.854;9.158;2023-04-29T06:03:45;1999.90;;;999.90;;
14015;SDS011;7083;48.854;9.158;2023-04-29T06:06:12;1999.90;;;999.90;;
14015;SDS011;7083;48.854;9.158;2023-04-29T06:08:39;1999.90;;;999.90;;
14015;SDS011;7083;48.854;9.158;2023-04-29T06:11:06;1999.90;;;999.90;;
14015;SDS011;7083;48.854;9.158;2023-04-29T06:13:34;1999.90;;;999.90;;
14015;SDS011;7083;48.854;9.158;2023-04-29T06:16:00;1999.90;;;999.90;;
14015;SDS011;7083;48.854;9.158;2023-04-29T06:18:27;1999.90;;;999.90;;
14015;SDS011;7083;48.854;9.158;2023-04-29T06:20:54;1999.90;;;999.90;;
14015;SDS011;7083;48.854;9.158;2023-04-29T06:23:20;1999.90;;;999.90;;
14015;SDS011;7083;48.854;9.158;2023-04-29T06:25:47;1999.90;;;999.90;;
14015;SDS011;7083;48.854;9.158;2023-04-29T06:28:14;1999.90;;;999.90;;
14015;SDS011;7083;48.854;9.158;2023-04-29T06:30:42;1999.90;;;999.90;;
14015;SDS011;7083;48.854;9.158;2023-04-29T06:33:09;1999.90;;;999.90;;
14015;SDS011;7083;48.854;9.158;2023-04-29T06:35:37;1999.90;;;999.90;;
14015;SDS011;7083;48.854;9.158;2023-04-29T06:38:04;1999.90;;;999.90;;
14015;SDS011;7083;48.854;9.158;2023-04-29T06:40:32;1999.90;;;999.90;;
14015;SDS011;7083;48.854;9.158;2023-04-29T06:42:58;1999.90;;;999.90;;
14015;SDS011;7083;48.854;9.158;2023-04-29T06:45:26;1999.90;;;999.90;;
14015;SDS011;7083;48.854;9.158;2023-04-29T06:47:54;1999.90;;;999.90;;
14015;SDS011;7083;48.854;9.158;2023-04-29T06:50:20;1999.90;;;999.90;;
14015;SDS011;7083;48.854;9.158;2023-04-29T06:52:47;1999.90;;;999.90;;
14015;SDS011;7083;48.854;9.158;2023-04-29T06:55:14;1999.90;;;999.90;;
14015;SDS011;7083;48.854;9.158;2023-04-29T06:57:42;1999.90;;;999.90;;
14015;SDS011;7083;48.854;9.158;2023-04-29T07:00:08;1999.90;;;999.90;;
14015;SDS011;7083;48.854;9.158;2023-04-29T07:02:35;1999.90;;;999.90;;
14015;SDS011;7083;48.854;9.158;2023-04-29T07:05:04;1999.90;;;999.90;;
14015;SDS011;7083;48.854;9.158;2023-04-29T07:07:32;202.50;;;193.90;;
14015;SDS011;7083;48.854;9.158;2023-04-29T07:09:58;192.57;;;184.23;;
14015;SDS011;7083;48.854;9.158;2023-04-29T07:12:25;195.10;;;186.63;;
14015;SDS011;7083;48.854;9.158;2023-04-29T07:14:52;196.10;;;187.53;;
14015;SDS011;7083;48.854;9.158;2023-04-29T07:17:19;200.00;;;191.30;;
14015;SDS011;7083;48.854;9.158;2023-04-29T07:19:45;213.70;;;204.23;;
14015;SDS011;7083;48.854;9.158;2023-04-29T07:22:13;244.70;;;233.90;;
14015;SDS011;7083;48.854;9.158;2023-04-29T07:24:40;253.97;;;242.63;;
14015;SDS011;7083;48.854;9.158;2023-04-29T07:27:07;259.13;;;247.30;;
14015;SDS011;7083;48.854;9.158;2023-04-29T07:29:33;1999.90;;;999.90;;
14015;SDS011;7083;48.854;9.158;2023-04-29T07:32:00;1999.90;;;999.90;;
14015;SDS011;7083;48.854;9.158;2023-04-29T07:34:27;194.93;;;186.77;;
14015;SDS011;7083;48.854;9.158;2023-04-29T07:36:53;187.80;;;179.83;;
14015;SDS011;7083;48.854;9.158;2023-04-29T07:39:22;221.73;;;212.17;;
14015;SDS011;7083;48.854;9.158;2023-04-29T07:41:49;276.87;;;264.57;;
14015;SDS011;7083;48.854;9.158;2023-04-29T07:44:16;279.77;;;267.23;;
14015;SDS011;7083;48.854;9.158;2023-04-29T07:46:42;278.70;;;266.10;;
14015;SDS011;7083;48.854;9.158;2023-04-29T07:49:09;325.27;;;310.07;;
14015;SDS011;7083;48.854;9.158;2023-04-29T07:51:36;348.53;;;332.53;;
14015;SDS011;7083;48.854;9.158;2023-04-29T07:54:05;401.07;;;382.43;;
14015;SDS011;7083;48.854;9.158;2023-04-29T07:56:33;301.47;;;287.83;;
14015;SDS011;7083;48.854;9.158;2023-04-29T07:59:00;242.77;;;232.10;;
14015;SDS011;7083;48.854;9.158;2023-04-29T08:01:27;247.10;;;236.33;;
14015;SDS011;7083;48.854;9.158;2023-04-29T08:03:54;237.17;;;226.80;;
14015;SDS011;7083;48.854;9.158;2023-04-29T08:06:21;257.00;;;245.87;;
14015;SDS011;7083;48.854;9.158;2023-04-29T08:08:48;209.00;;;199.90;;
14015;SDS011;7083;48.854;9.158;2023-04-29T08:11:15;185.47;;;177.47;;
14015;SDS011;7083;48.854;9.158;2023-04-29T08:13:43;195.43;;;186.60;;
14015;SDS011;7083;48.854;9.158;2023-04-29T08:16:10;167.93;;;160.63;;
14015;SDS011;7083;48.854;9.158;2023-04-29T08:18:37;199.80;;;190.60;;
14015;SDS011;7083;48.854;9.158;2023-04-29T08:21:04;177.73;;;169.57;;
14015;SDS011;7083;48.854;9.158;2023-04-29T08:23:30;173.23;;;165.50;;
14015;SDS011;7083;48.854;9.158;2023-04-29T08:25:58;179.40;;;171.70;;
14015;SDS011;7083;48.854;9.158;2023-04-29T08:28:25;200.13;;;191.53;;
14015;SDS011;7083;48.854;9.158;2023-04-29T08:30:53;274.23;;;262.37;;
14015;SDS011;7083;48.854;9.158;2023-04-29T08:33:20;201.83;;;193.60;;
14015;SDS011;7083;48.854;9.158;2023-04-29T08:35:47;187.90;;;180.03;;
14015;SDS011;7083;48.854;9.158;2023-04-29T08:38:14;293.63;;;280.80;;
14015;SDS011;7083;48.854;9.158;2023-04-29T08:40:41;305.17;;;290.67;;
14015;SDS011;7083;48.854;9.158;2023-04-29T08:43:09;284.30;;;271.10;;
14015;SDS011;7083;48.854;9.158;2023-04-29T08:45:38;357.63;;;341.83;;
14015;SDS011;7083;48.854;9.158;2023-04-29T08:48:07;372.87;;;356.33;;
14015;SDS011;7083;48.854;9.158;2023-04-29T08:50:36;533.53;;;507.80;;
14015;SDS011;7083;48.854;9.158;2023-04-29T08:53:04;412.37;;;394.40;;
14015;SDS011;7083;48.854;9.158;2023-04-29T08:55:32;343.80;;;329.13;;
14015;SDS011;7083;48.854;9.158;2023-04-29T08:58:01;364.40;;;348.70;;
14015;SDS011;7083;48.854;9.158;2023-04-29T09:00:29;360.17;;;344.70;;
14015;SDS011;7083;48.854;9.158;2023-04-29T09:02:56;550.90;;;523.83;;
14015;SDS011;7083;48.854;9.158;2023-04-29T09:05:26;468.70;;;447.20;;
14015;SDS011;7083;48.854;9.158;2023-04-29T09:07:53;603.43;;;571.67;;
14015;SDS011;7083;48.854;9.158;2023-04-29T09:10:23;599.63;;;568.57;;
14015;SDS011;7083;48.854;9.158;2023-04-29T09:12:51;437.27;;;418.17;;
14015;SDS011;7083;48.854;9.158;2023-04-29T09:15:21;456.43;;;435.63;;
14015;SDS011;7083;48.854;9.158;2023-04-29T09:17:48;518.37;;;493.60;;
14015;SDS011;7083;48.854;9.158;2023-04-29T09:20:31;499.03;;;475.63;;
14015;SDS011;7083;48.854;9.158;2023-04-29T09:22:58;415.87;;;397.37;;
14015;SDS011;7083;48.854;9.158;2023-04-29T09:25:27;628.90;;;595.60;;
14015;SDS011;7083;48.854;9.158;2023-04-29T09:27:55;689.73;;;651.20;;
14015;SDS011;7083;48.854;9.158;2023-04-29T09:30:22;594.03;;;563.47;;
14015;SDS011;7083;48.854;9.158;2023-04-29T09:33:03;604.10;;;572.27;;
14015;SDS011;7083;48.854;9.158;2023-04-29T09:35:33;637.13;;;602.50;;
14015;SDS011;7083;48.854;9.158;2023-04-29T09:38:07;585.97;;;555.70;;
14015;SDS011;7083;48.854;9.158;2023-04-29T09:40:35;616.23;;;583.70;;
14015;SDS011;7083;48.854;9.158;2023-04-29T09:43:01;622.07;;;588.60;;
14015;SDS011;7083;48.854;9.158;2023-04-29T09:45:32;642.37;;;607.77;;
14015;SDS011;7083;48.854;9.158;2023-04-29T09:48:00;657.43;;;620.87;;
14015;SDS011;7083;48.854;9.158;2023-04-29T09:50:28;598.67;;;566.53;;
14015;SDS011;7083;48.854;9.158;2023-04-29T09:52:56;802.10;;;753.37;;
14015;SDS011;7083;48.854;9.158;2023-04-29T09:55:22;731.27;;;688.43;;
14015;SDS011;7083;48.854;9.158;2023-04-29T09:57:50;706.23;;;665.27;;
14015;SDS011;7083;48.854;9.158;2023-04-29T10:00:17;695.03;;;654.47;;
14015;SDS011;7083;48.854;9.158;2023-04-29T10:02:44;643.30;;;607.53;;
14015;SDS011;7083;48.854;9.158;2023-04-29T10:05:12;712.23;;;670.50;;
14015;SDS011;7083;48.854;9.158;2023-04-29T10:07:40;764.30;;;718.73;;
14015;SDS011;7083;48.854;9.158;2023-04-29T10:10:09;747.40;;;702.77;;
14015;SDS011;7083;48.854;9.158;2023-04-29T10:12:38;757.00;;;711.13;;
14015;SDS011;7083;48.854;9.158;2023-04-29T10:15:07;770.93;;;724.27;;
14015;SDS011;7083;48.854;9.158;2023-04-29T10:17:44;732.67;;;688.87;;
14015;SDS011;7083;48.854;9.158;2023-04-29T10:20:14;819.10;;;768.17;;
14015;SDS011;7083;48.854;9.158;2023-04-29T10:22:48;801.63;;;752.30;;
14015;SDS011;7083;48.854;9.158;2023-04-29T10:25:17;829.53;;;777.80;;
14015;SDS011;7083;48.854;9.158;2023-04-29T10:27:45;817.93;;;767.10;;
14015;SDS011;7083;48.854;9.158;2023-04-29T10:30:13;882.13;;;823.87;;
14015;SDS011;7083;48.854;9.158;2023-04-29T10:32:42;874.33;;;811.27;;
14015;SDS011;7083;48.854;9.158;2023-04-29T10:35:11;981.23;;;622.40;;
14015;SDS011;7083;48.854;9.158;2023-04-29T10:37:39;752.20;;;697.63;;
14015;SDS011;7083;48.854;9.158;2023-04-29T10:40:09;1558.73;;;875.23;;
14015;SDS011;7083;48.854;9.158;2023-04-29T10:42:43;1475.00;;;797.93;;
14015;SDS011;7083;48.854;9.158;2023-04-29T10:45:18;1999.90;;;999.90;;
14015;SDS011;7083;48.854;9.158;2023-04-29T10:50:39;1505.13;;;826.00;;
14015;SDS011;7083;48.854;9.158;2023-04-29T10:53:25;1999.90;;;999.90;;
14015;SDS011;7083;48.854;9.158;2023-04-29T10:55:53;1999.90;;;999.90;;
14015;SDS011;7083;48.854;9.158;2023-04-29T10:58:36;1999.90;;;999.90;;
14015;SDS011;7083;48.854;9.158;2023-04-29T11:01:04;1999.90;;;999.90;;
14015;SDS011;7083;48.854;9.158;2023-04-29T11:03:47;1999.90;;;999.90;;
14015;SDS011;7083;48.854;9.158;2023-04-29T11:06:23;1999.90;;;999.90;;
14015;SDS011;7083;48.854;9.158;2023-04-29T11:09:00;1999.90;;;999.90;;
14015;SDS011;7083;48.854;9.158;2023-04-29T11:11:39;1999.90;;;999.90;;
14015;SDS011;7083;48.854;9.158;2023-04-29T11:14:24;1999.90;;;999.90;;
14015;SDS011;7083;48.854;9.158;2023-04-29T11:16:52;1999.90;;;999.90;;
14015;SDS011;7083;48.854;9.158;2023-04-29T11:19:22;1999.90;;;999.90;;
14015;SDS011;7083;48.854;9.158;2023-04-29T11:22:02;1999.90;;;999.90;;
14015;SDS011;7083;48.854;9.158;2023-04-29T11:24:34;1999.90;;;999.90;;
14015;SDS011;7083;48.854;9.158;2023-04-29T11:27:01;1999.90;;;999.90;;
14015;SDS011;7083;48.854;9.158;2023-04-29T11:29:31;1999.90;;;999.90;;
14015;SDS011;7083;48.854;9.158;2023-04-29T11:31:58;1999.90;;;999.90;;
14015;SDS011;7083;48.854;9.158;2023-04-29T11:34:25;1999.90;;;999.90;;
14015;SDS011;7083;48.854;9.158;2023-04-29T11:36:51;1999.90;;;999.90;;
14015;SDS011;7083;48.854;9.158;2023-04-29T11:39:18;1999.90;;;999.90;;
14015;SDS011;7083;48.854;9.158;2023-04-29T11:41:45;1999.90;;;999.90;;
14015;SDS011;7083;48.854;9.158;2023-04-29T11:44:12;1999.90;;;999.90;;
14015;SDS011;7083;48.854;9.158;2023-04-29T11:46:40;1999.90;;;999.90;;
14015;SDS011;7083;48.854;9.158;2023-04-29T11:49:06;1999.90;;;999.90;;
14015;SDS011;7083;48.854;9.158;2023-04-29T11:51:33;1999.90;;;999.90;;
14015;SDS011;7083;48.854;9.158;2023-04-29T11:54:00;1999.90;;;999.90;;
14015;SDS011;7083;48.854;9.158;2023-04-29T11:56:26;1999.90;;;999.90;;
14015;SDS011;7083;48.854;9.158;2023-04-29T11:58:53;1999.90;;;999.90;;
14015;SDS011;7083;48.854;9.158;2023-04-29T12:01:21;1999.90;;;999.90;;
14015;SDS011;7083;48.854;9.158;2023-04-29T12:03:49;1999.90;;;999.90;;
14015;SDS011;7083;48.854;9.158;2023-04-29T12:06:16;1999.90;;;999.90;;
14015;SDS011;7083;48.854;9.158;2023-04-29T12:08:45;1999.90;;;999.90;;
14015;SDS011;7083;48.854;9.158;2023-04-29T12:11:12;1999.90;;;999.90;;
14015;SDS011;7083;48.854;9.158;2023-04-29T12:13:39;1999.90;;;999.90;;
14015;SDS011;7083;48.854;9.158;2023-04-29T12:16:06;1999.90;;;999.90;;
14015;SDS011;7083;48.854;9.158;2023-04-29T12:18:33;1999.90;;;999.90;;
14015;SDS011;7083;48.854;9.158;2023-04-29T12:21:01;1999.90;;;999.90;;
14015;SDS011;7083;48.854;9.158;2023-04-29T12:23:28;1999.90;;;999.90;;
14015;SDS011;7083;48.854;9.158;2023-04-29T12:25:56;1999.90;;;999.90;;
14015;SDS011;7083;48.854;9.158;2023-04-29T12:28:23;1999.90;;;999.90;;
14015;SDS011;7083;48.854;9.158;2023-04-29T12:30:51;1999.90;;;999.90;;
14015;SDS011;7083;48.854;9.158;2023-04-29T12:33:19;1999.90;;;999.90;;
14015;SDS011;7083;48.854;9.158;2023-04-29T12:35:46;1999.90;;;999.90;;
14015;SDS011;7083;48.854;9.158;2023-04-29T12:38:21;1999.90;;;999.90;;
14015;SDS011;7083;48.854;9.158;2023-04-29T12:40:48;1999.90;;;999.90;;
14015;SDS011;7083;48.854;9.158;2023-04-29T12:43:15;1999.90;;;999.90;;
14015;SDS011;7083;48.854;9.158;2023-04-29T12:45:43;1999.90;;;999.90;;
14015;SDS011;7083;48.854;9.158;2023-04-29T12:48:10;1999.90;;;999.90;;
14015;SDS011;7083;48.854;9.158;2023-04-29T12:50:38;1999.90;;;999.90;;
14015;SDS011;7083;48.854;9.158;2023-04-29T12:53:05;1999.90;;;999.90;;
14015;SDS011;7083;48.854;9.158;2023-04-29T12:55:35;1999.90;;;999.90;;
14015;SDS011;7083;48.854;9.158;2023-04-29T12:58:03;1999.90;;;999.90;;
14015;SDS011;7083;48.854;9.158;2023-04-29T13:00:31;1999.90;;;999.90;;
14015;SDS011;7083;48.854;9.158;2023-04-29T13:02:58;1999.90;;;999.90;;
14015;SDS011;7083;48.854;9.158;2023-04-29T13:05:25;1999.90;;;999.90;;
14015;SDS011;7083;48.854;9.158;2023-04-29T13:07:51;1999.90;;;999.90;;
14015;SDS011;7083;48.854;9.158;2023-04-29T13:10:18;1999.90;;;999.90;;
14015;SDS011;7083;48.854;9.158;2023-04-29T13:12:46;1999.90;;;999.90;;
14015;SDS011;7083;48.854;9.158;2023-04-29T13:15:13;1999.90;;;999.90;;
14015;SDS011;7083;48.854;9.158;2023-04-29T13:17:40;1999.90;;;999.90;;
14015;SDS011;7083;48.854;9.158;2023-04-29T13:20:07;1999.90;;;999.90;;
14015;SDS011;7083;48.854;9.158;2023-04-29T13:22:35;1999.90;;;999.90;;
14015;SDS011;7083;48.854;9.158;2023-04-29T13:25:02;1999.90;;;999.90;;
14015;SDS011;7083;48.854;9.158;2023-04-29T13:27:29;1999.90;;;999.90;;
14015;SDS011;7083;48.854;9.158;2023-04-29T13:29:57;1999.90;;;999.90;;
14015;SDS011;7083;48.854;9.158;2023-04-29T13:32:24;1999.90;;;999.90;;
14015;SDS011;7083;48.854;9.158;2023-04-29T13:34:51;1999.90;;;999.90;;
14015;SDS011;7083;48.854;9.158;2023-04-29T13:37:18;1999.90;;;999.90;;
14015;SDS011;7083;48.854;9.158;2023-04-29T13:39:45;1999.90;;;999.90;;
14015;SDS011;7083;48.854;9.158;2023-04-29T13:42:12;1999.90;;;999.90;;
14015;SDS011;7083;48.854;9.158;2023-04-29T13:44:38;1999.90;;;999.90;;
14015;SDS011;7083;48.854;9.158;2023-04-29T13:47:10;1999.90;;;999.90;;
14015;SDS011;7083;48.854;9.158;2023-04-29T13:49:37;1999.90;;;999.90;;
14015;SDS011;7083;48.854;9.158;2023-04-29T13:52:05;1999.90;;;999.90;;
14015;SDS011;7083;48.854;9.158;2023-04-29T13:54:32;1999.90;;;999.90;;
14015;SDS011;7083;48.854;9.158;2023-04-29T13:56:58;1999.90;;;999.90;;
14015;SDS011;7083;48.854;9.158;2023-04-29T13:59:27;1999.90;;;999.90;;
14015;SDS011;7083;48.854;9.158;2023-04-29T14:01:54;1999.90;;;999.90;;
14015;SDS011;7083;48.854;9.158;2023-04-29T14:04:23;1999.90;;;999.90;;
14015;SDS011;7083;48.854;9.158;2023-04-29T14:06:49;1999.90;;;999.90;;
14015;SDS011;7083;48.854;9.158;2023-04-29T14:09:16;1999.90;;;999.90;;
14015;SDS011;7083;48.854;9.158;2023-04-29T14:11:43;1999.90;;;999.90;;